Time;durP1;ratioP1;P1;durP2;ratioP2;P2;SDS_P1;SDS_P2;PMS_P1;PMS_P2;Temp;Humidity;BMP_temperature;BMP_pressure;BME280_temperature;BME280_humidity;BME280_pressure;Samples;Min_cycle;Max_cycle;Signal;HPM_P1;HPM_P2
2022/11/17 00:00:18;;;;;;;11.77;9.40;;;6.50;99.90;;;;;;5096855;28;20489;-68
2022/11/17 00:02:45;;;;;;;8.67;7.83;;;6.50;99.90;;;;;;5096956;28;20488;-68
2022/11/17 00:05:13;;;;;;;9.70;8.70;;;6.50;99.90;;;;;;5097523;28;20983;-69
2022/11/17 00:07:40;;;;;;;11.83;9.17;;;6.50;99.90;;;;;;5096996;28;20555;-69
2022/11/17 00:10:07;;;;;;;11.80;8.60;;;6.50;99.90;;;;;;5097516;28;20487;-68
2022/11/17 00:15:20;;;;;;;10.13;7.93;;;6.40;99.90;;;;;;5098421;28;20417;-68
2022/11/17 00:17:47;;;;;;;11.73;8.90;;;6.40;99.90;;;;;;5097615;28;20548;-68
2022/11/17 00:22:59;;;;;;;10.53;9.43;;;6.30;99.90;;;;;;5098107;28;20464;-67
2022/11/17 00:25:26;;;;;;;11.17;9.40;;;6.20;99.90;;;;;;5098284;28;20554;-69
2022/11/17 00:27:53;;;;;;;11.97;9.30;;;6.20;99.90;;;;;;5097301;28;20932;-68
2022/11/17 00:35:51;;;;;;;9.20;8.20;;;6.10;99.90;;;;;;5096908;28;20425;-68
2022/11/17 00:38:18;;;;;;;12.00;9.77;;;6.10;99.90;;;;;;5096435;28;20449;-68
2022/11/17 00:40:45;;;;;;;9.80;8.80;;;6.00;99.90;;;;;;5097220;28;20457;-68
2022/11/17 00:43:13;;;;;;;12.20;9.63;;;6.00;99.90;;;;;;5100254;28;20537;-68
2022/11/17 00:45:41;;;;;;;11.77;8.97;;;6.00;99.90;;;;;;5098025;28;20481;-68
2022/11/17 00:48:08;;;;;;;9.90;8.53;;;6.00;99.90;;;;;;5096454;28;20543;-67
2022/11/17 00:50:35;;;;;;;11.87;9.10;;;6.00;99.90;;;;;;5096909;28;20541;-68
2022/11/17 00:53:02;;;;;;;11.93;9.30;;;6.00;99.90;;;;;;5097389;28;20453;-67
2022/11/17 00:55:28;;;;;;;10.50;9.40;;;6.00;99.90;;;;;;5097031;28;20453;-68
2022/11/17 00:57:55;;;;;;;10.70;9.00;;;6.00;99.90;;;;;;5096338;28;20540;-68
2022/11/17 01:00:22;;;;;;;9.60;8.30;;;6.00;99.90;;;;;;5096713;28;20974;-68
2022/11/17 01:02:51;;;;;;;10.50;8.67;;;6.00;99.90;;;;;;5096718;28;20560;-68
2022/11/17 01:05:17;;;;;;;9.43;8.47;;;6.00;99.90;;;;;;5096508;28;20526;-68
2022/11/17 01:07:45;;;;;;;10.60;9.10;;;6.00;99.90;;;;;;5098737;28;20935;-68
2022/11/17 01:10:13;;;;;;;10.83;9.10;;;6.00;99.90;;;;;;5097873;28;20468;-67
2022/11/17 01:12:40;;;;;;;15.13;8.83;;;6.00;99.90;;;;;;5097748;28;20832;-67
2022/11/17 01:15:08;;;;;;;11.43;9.00;;;5.90;99.90;;;;;;5098193;28;20761;-67
2022/11/17 01:17:35;;;;;;;9.93;8.60;;;5.90;99.90;;;;;;5097880;28;20960;-67
2022/11/17 01:20:04;;;;;;;9.93;8.93;;;5.90;99.90;;;;;;5097973;28;20966;-68
2022/11/17 01:22:31;;;;;;;9.50;8.50;;;5.80;99.90;;;;;;5097536;28;20473;-67
2022/11/17 01:24:57;;;;;;;10.17;8.60;;;5.90;99.90;;;;;;5097313;28;20489;-68
2022/11/17 01:27:24;;;;;;;10.97;9.00;;;5.80;99.90;;;;;;5097744;28;20464;-68
2022/11/17 01:29:51;;;;;;;9.43;8.43;;;5.80;99.90;;;;;;5097793;28;20485;-68
2022/11/17 01:32:18;;;;;;;9.30;8.20;;;5.80;99.90;;;;;;5098734;28;20918;-67
2022/11/17 01:34:45;;;;;;;9.23;8.27;;;5.80;99.90;;;;;;5101672;28;20552;-67
2022/11/17 01:37:19;;;;;;;10.33;8.37;;;5.80;99.90;;;;;;5101239;28;20526;-67
2022/11/17 01:39:47;;;;;;;10.93;9.30;;;5.90;99.90;;;;;;5100387;28;20485;-67
2022/11/17 01:42:15;;;;;;;12.00;8.40;;;5.90;99.90;;;;;;5101535;28;20885;-67
2022/11/17 01:45:00;;;;;;;9.60;8.47;;;5.90;99.90;;;;;;5102044;28;20485;-68
2022/11/17 01:47:36;;;;;;;11.57;8.90;;;5.80;99.90;;;;;;5101776;28;20469;-67
2022/11/17 01:50:09;;;;;;;9.57;8.53;;;5.80;99.90;;;;;;5102707;28;20934;-67
2022/11/17 01:52:39;;;;;;;10.60;9.50;;;5.70;99.90;;;;;;5102272;28;20516;-68
2022/11/17 01:55:08;;;;;;;9.60;8.23;;;5.80;99.90;;;;;;5102535;28;20457;-69
2022/11/17 01:57:39;;;;;;;10.10;8.77;;;5.70;99.90;;;;;;5103557;28;20481;-68
2022/11/17 02:00:09;;;;;;;10.60;8.43;;;5.70;99.90;;;;;;5103979;28;20441;-68
2022/11/17 02:02:38;;;;;;;11.57;8.57;;;5.70;99.90;;;;;;5102491;28;20506;-68
2022/11/17 02:05:15;;;;;;;10.57;7.97;;;5.70;99.90;;;;;;5102829;28;20805;-67
2022/11/17 02:07:45;;;;;;;9.73;8.73;;;5.70;99.90;;;;;;5102214;28;20492;-67
2022/11/17 02:10:12;;;;;;;11.27;8.40;;;5.70;99.90;;;;;;5102385;28;20800;-67
2022/11/17 02:12:39;;;;;;;10.87;9.47;;;5.70;99.90;;;;;;5102346;28;20469;-68
2022/11/17 02:15:06;;;;;;;11.50;8.57;;;5.70;99.90;;;;;;5101317;28;20506;-68
2022/11/17 02:17:36;;;;;;;9.70;8.63;;;5.70;99.90;;;;;;5101544;28;20549;-68
2022/11/17 02:20:09;;;;;;;12.47;9.03;;;5.80;99.90;;;;;;5103110;28;20457;-67
2022/11/17 02:23:01;;;;;;;10.57;9.20;;;5.80;99.90;;;;;;5105073;28;20864;-68
2022/11/17 02:26:06;;;;;;;9.67;8.67;;;5.70;99.90;;;;;;5103175;28;20984;-68
2022/11/17 02:28:37;;;;;;;10.43;8.93;;;5.70;99.90;;;;;;5103052;28;20493;-68
2022/11/17 02:31:18;;;;;;;9.90;8.90;;;5.70;99.90;;;;;;5102732;28;20448;-67
2022/11/17 02:33:55;;;;;;;9.83;8.53;;;5.70;99.90;;;;;;5103315;28;20441;-67
2022/11/17 02:36:30;;;;;;;10.27;8.47;;;5.70;99.90;;;;;;5101966;28;20453;-67
2022/11/17 02:39:04;;;;;;;9.40;8.20;;;5.70;99.90;;;;;;5103349;28;20441;-67
2022/11/17 02:41:38;;;;;;;11.93;8.60;;;5.70;99.90;;;;;;5103412;28;20473;-67
2022/11/17 02:44:10;;;;;;;9.00;8.10;;;5.60;99.90;;;;;;5102977;28;20473;-67
2022/11/17 02:46:44;;;;;;;10.37;9.00;;;5.60;99.90;;;;;;5101371;28;20465;-68
2022/11/17 02:49:18;;;;;;;11.87;9.37;;;5.60;99.90;;;;;;5100266;28;20517;-68
2022/11/17 02:51:48;;;;;;;9.97;8.43;;;5.70;99.90;;;;;;5099828;28;20446;-68
2022/11/17 02:54:15;;;;;;;10.33;9.20;;;5.70;99.90;;;;;;5101802;28;20483;-67
2022/11/17 02:56:42;;;;;;;10.53;9.43;;;5.70;99.90;;;;;;5100981;28;20921;-68
2022/11/17 02:59:13;;;;;;;10.03;8.90;;;5.60;99.90;;;;;;5101854;28;20483;-68
2022/11/17 03:02:15;;;;;;;10.43;9.20;;;5.60;99.90;;;;;;5102356;28;20474;-67
2022/11/17 03:04:49;;;;;;;11.33;9.07;;;5.60;99.90;;;;;;5103184;28;20461;-68
2022/11/17 03:07:34;;;;;;;10.60;9.00;;;5.60;99.90;;;;;;5101647;28;20433;-67
2022/11/17 03:10:11;;;;;;;10.33;8.40;;;5.60;99.90;;;;;;5101281;28;20441;-66
2022/11/17 03:12:45;;;;;;;10.83;9.17;;;5.50;99.90;;;;;;5101013;28;20502;-67
2022/11/17 03:15:22;;;;;;;10.47;9.20;;;5.50;99.90;;;;;;5100535;28;20448;-67
2022/11/17 03:17:57;;;;;;;10.40;8.80;;;5.50;99.90;;;;;;5100678;28;20451;-67
2022/11/17 03:20:27;;;;;;;11.80;8.60;;;5.60;99.90;;;;;;5102520;28;20480;-68
2022/11/17 03:22:58;;;;;;;9.97;8.97;;;5.60;99.90;;;;;;5101862;28;20542;-68
2022/11/17 03:25:27;;;;;;;12.30;9.07;;;5.50;99.90;;;;;;5062060;28;1128375;-68
2022/11/17 03:27:59;;;;;;;10.50;9.17;;;5.50;99.90;;;;;;5102254;28;20522;-68
2022/11/17 03:30:29;;;;;;;9.43;8.43;;;5.50;99.90;;;;;;5103039;28;20463;-67
2022/11/17 03:33:04;;;;;;;10.63;8.00;;;5.50;99.90;;;;;;5102571;28;20446;-67
2022/11/17 03:35:33;;;;;;;9.63;8.63;;;5.50;99.90;;;;;;5101735;28;20441;-67
2022/11/17 03:38:04;;;;;;;9.30;8.33;;;5.50;99.90;;;;;;5101830;28;20518;-67
2022/11/17 03:40:35;;;;;;;11.00;8.83;;;5.50;99.90;;;;;;5102180;28;20495;-67
2022/11/17 03:43:06;;;;;;;11.20;9.20;;;5.50;99.90;;;;;;5101385;28;20552;-67
2022/11/17 03:45:37;;;;;;;9.30;8.33;;;5.50;99.90;;;;;;5102402;28;20446;-67
2022/11/17 03:48:08;;;;;;;13.60;8.93;;;5.60;99.90;;;;;;5102097;28;20820;-67
2022/11/17 03:50:38;;;;;;;10.97;8.97;;;5.50;99.90;;;;;;5102047;28;20438;-68
2022/11/17 03:53:06;;;;;;;12.27;10.00;;;5.60;99.90;;;;;;5101719;28;20482;-66
2022/11/17 03:55:41;;;;;;;10.00;8.70;;;5.60;99.90;;;;;;5101876;28;20461;-68
2022/11/17 03:58:13;;;;;;;9.63;8.60;;;5.60;99.90;;;;;;5101668;28;20491;-67
2022/11/17 04:00:43;;;;;;;11.53;8.70;;;5.60;99.90;;;;;;5102038;28;20889;-67
2022/11/17 04:03:10;;;;;;;10.50;8.47;;;5.60;99.90;;;;;;5103022;28;20528;-68
2022/11/17 04:05:37;;;;;;;14.30;9.93;;;5.60;99.90;;;;;;5102495;28;20493;-67
2022/11/17 04:08:04;;;;;;;10.37;8.50;;;5.70;99.90;;;;;;5102265;28;20760;-67
2022/11/17 04:15:54;;;;;;;10.27;8.90;;;5.60;99.90;;;;;;5102710;28;20457;-67
2022/11/17 04:16:04;;;;;;;13.17;9.70;;;5.60;99.90;;;;;;5102786;28;20424;-67
2022/11/17 04:18:31;;;;;;;10.07;8.63;;;5.60;99.90;;;;;;5102050;28;20522;-68
2022/11/17 04:20:58;;;;;;;9.87;8.83;;;5.60;99.90;;;;;;5102137;28;20522;-68
2022/11/17 04:23:26;;;;;;;10.43;9.27;;;5.60;99.90;;;;;;5100523;28;20972;-67
2022/11/17 04:28:41;;;;;;;10.80;9.70;;;5.60;99.90;;;;;;5101010;28;20506;-67
2022/11/17 04:31:11;;;;;;;11.10;9.93;;;5.60;99.90;;;;;;5099861;28;20474;-68
2022/11/17 04:33:40;;;;;;;11.57;9.53;;;5.60;99.90;;;;;;5099583;28;20529;-68
2022/11/17 04:36:08;;;;;;;10.20;8.80;;;5.60;99.90;;;;;;5100271;28;20506;-68
2022/11/17 04:38:36;;;;;;;9.73;8.70;;;5.60;99.90;;;;;;5101023;28;20453;-68
2022/11/17 04:43:49;;;;;;;11.53;9.77;;;5.60;99.90;;;;;;5099746;28;20464;-68
2022/11/17 04:46:19;;;;;;;11.70;10.27;;;5.60;99.90;;;;;;5101085;28;20484;-68
2022/11/17 04:48:47;;;;;;;11.97;10.27;;;5.60;99.90;;;;;;5100701;28;20496;-67
2022/11/17 04:51:15;;;;;;;11.70;10.37;;;5.60;99.90;;;;;;5100046;28;20461;-68
2022/11/17 04:53:43;;;;;;;12.23;10.87;;;5.60;99.90;;;;;;5100154;28;20906;-68
2022/11/17 04:56:10;;;;;;;10.97;9.83;;;5.70;99.90;;;;;;5100409;28;20480;-68
2022/11/17 04:58:37;;;;;;;11.53;9.30;;;5.70;99.90;;;;;;5100431;28;20480;-65
2022/11/17 05:01:16;;;;;;;13.50;10.50;;;5.70;99.90;;;;;;5100451;28;20500;-68
2022/11/17 05:03:46;;;;;;;11.07;9.53;;;5.70;99.90;;;;;;5102187;28;20785;-67
2022/11/17 05:06:15;;;;;;;11.23;10.10;;;5.70;99.90;;;;;;5103642;28;20453;-67
2022/11/17 05:08:43;;;;;;;12.63;9.60;;;5.70;99.90;;;;;;5102604;28;20839;-67
2022/11/17 05:13:56;;;;;;;13.20;10.30;;;5.60;99.90;;;;;;5101022;28;20490;-68
2022/11/17 05:19:12;;;;;;;13.10;10.40;;;5.70;99.90;;;;;;5102490;28;20513;-67
2022/11/17 05:21:39;;;;;;;12.17;9.00;;;5.70;99.90;;;;;;5102067;28;20473;-68
2022/11/17 05:24:05;;;;;;;12.77;10.50;;;5.70;99.90;;;;;;5099742;28;20477;-68
2022/11/17 05:26:34;;;;;;;12.40;10.37;;;5.70;99.90;;;;;;5099063;28;20875;-68
2022/11/17 05:29:03;;;;;;;12.33;10.33;;;5.70;99.90;;;;;;5098718;28;20484;-67
2022/11/17 05:31:30;;;;;;;12.77;10.07;;;5.70;99.90;;;;;;5099530;28;20847;-68
2022/11/17 05:33:58;;;;;;;13.57;10.63;;;5.70;99.90;;;;;;5099834;28;20481;-67
2022/11/17 05:36:28;;;;;;;14.30;10.97;;;5.80;99.90;;;;;;5100314;28;20499;-67
2022/11/17 05:38:55;;;;;;;12.50;10.17;;;5.70;99.90;;;;;;5100811;28;20476;-69
2022/11/17 05:41:23;;;;;;;12.13;10.80;;;5.80;99.90;;;;;;5099863;28;20484;-68
2022/11/17 05:43:50;;;;;;;13.17;10.80;;;5.80;99.90;;;;;;5101198;28;20509;-68
2022/11/17 05:46:18;;;;;;;11.93;10.07;;;5.80;99.90;;;;;;5100719;28;20465;-67
2022/11/17 05:48:45;;;;;;;12.63;10.20;;;5.80;99.90;;;;;;5099836;28;20598;-67
2022/11/17 05:51:12;;;;;;;19.87;10.77;;;5.80;99.90;;;;;;5100202;28;20449;-68
2022/11/17 05:53:41;;;;;;;51.13;12.77;;;5.80;99.90;;;;;;5102329;28;20492;-66
2022/11/17 05:56:18;;;;;;;11.20;9.80;;;5.80;99.90;;;;;;5102520;28;20461;-68
2022/11/17 05:58:50;;;;;;;11.60;9.97;;;5.80;99.90;;;;;;5099886;28;20445;-67
2022/11/17 06:01:19;;;;;;;11.60;9.80;;;5.80;99.90;;;;;;5102595;28;20480;-68
2022/11/17 06:03:49;;;;;;;12.80;11.50;;;5.70;99.90;;;;;;5099181;28;20528;-68
2022/11/17 06:06:16;;;;;;;31.93;12.33;;;5.70;99.90;;;;;;5099000;28;20457;-68
2022/11/17 06:08:45;;;;;;;10.93;9.77;;;5.70;99.90;;;;;;5097967;28;20495;-68
2022/11/17 06:11:12;;;;;;;12.63;11.20;;;5.70;99.90;;;;;;5098265;28;20452;-68
2022/11/17 06:13:39;;;;;;;13.73;11.43;;;5.80;99.90;;;;;;5096621;28;20941;-67
2022/11/17 06:16:09;;;;;;;12.67;10.57;;;5.80;99.90;;;;;;5096103;28;20831;-70
2022/11/17 06:18:40;;;;;;;12.13;10.93;;;5.80;99.90;;;;;;5098351;28;20545;-67
2022/11/17 06:21:09;;;;;;;12.07;10.10;;;5.80;99.90;;;;;;5100401;28;20480;-66
2022/11/17 06:23:37;;;;;;;13.07;10.53;;;5.80;99.90;;;;;;5100546;28;20526;-66
2022/11/17 06:26:09;;;;;;;13.23;11.27;;;5.90;99.90;;;;;;5100669;28;20485;-67
2022/11/17 06:28:38;;;;;;;13.27;11.00;;;5.90;99.90;;;;;;5101247;28;20456;-65
2022/11/17 06:31:06;;;;;;;12.00;10.37;;;5.90;99.90;;;;;;5101056;28;20461;-66
2022/11/17 06:33:35;;;;;;;14.60;10.50;;;5.90;99.90;;;;;;5100514;28;20453;-66
2022/11/17 06:36:04;;;;;;;12.97;10.40;;;5.90;99.90;;;;;;5100225;28;20457;-67
2022/11/17 06:38:33;;;;;;;13.00;11.13;;;6.00;99.90;;;;;;5099982;28;20905;-67
2022/11/17 06:41:00;;;;;;;13.33;11.63;;;6.00;99.90;;;;;;5100179;28;20453;-66
2022/11/17 06:43:28;;;;;;;16.70;11.77;;;6.00;99.90;;;;;;5100239;28;20477;-66
2022/11/17 06:45:55;;;;;;;15.03;11.87;;;6.00;99.90;;;;;;5100794;28;20482;-66
2022/11/17 06:48:25;;;;;;;14.73;11.97;;;5.90;99.90;;;;;;5100286;28;20753;-66
2022/11/17 06:50:53;;;;;;;14.57;11.53;;;6.00;99.90;;;;;;5099704;28;20437;-65
2022/11/17 06:53:25;;;;;;;15.10;11.57;;;6.00;99.90;;;;;;5098842;28;20473;-66
2022/11/17 06:55:53;;;;;;;13.53;11.53;;;6.00;99.90;;;;;;5098486;28;20444;-66
2022/11/17 06:58:20;;;;;;;13.93;11.23;;;6.00;99.90;;;;;;5098264;28;20453;-65
2022/11/17 07:00:48;;;;;;;14.60;11.67;;;6.00;99.90;;;;;;5098808;28;20812;-66
2022/11/17 07:03:15;;;;;;;13.47;11.80;;;6.00;99.90;;;;;;5100254;28;20831;-66
2022/11/17 07:05:42;;;;;;;14.73;11.10;;;6.10;99.90;;;;;;5099078;28;20518;-67
2022/11/17 07:08:09;;;;;;;16.40;11.20;;;6.10;99.90;;;;;;5099702;28;20848;-65
2022/11/17 07:10:37;;;;;;;15.83;10.80;;;6.10;99.90;;;;;;5098023;28;20827;-65
2022/11/17 07:13:04;;;;;;;13.10;9.90;;;6.10;99.90;;;;;;5098811;28;20506;-65
2022/11/17 07:15:32;;;;;;;12.97;10.80;;;6.20;99.90;;;;;;5099708;28;20491;-67
2022/11/17 07:18:00;;;;;;;14.50;11.60;;;6.20;99.90;;;;;;5098695;28;20453;-66
2022/11/17 07:20:27;;;;;;;15.10;10.80;;;6.20;99.90;;;;;;5098430;28;20457;-66
2022/11/17 07:22:59;;;;;;;11.80;10.17;;;6.20;99.90;;;;;;5099215;28;20540;-67
2022/11/17 07:25:26;;;;;;;12.83;10.63;;;6.20;99.90;;;;;;5098425;28;20805;-67
2022/11/17 07:27:59;;;;;;;11.90;10.17;;;6.20;99.90;;;;;;5098447;28;20457;-66
2022/11/17 07:30:26;;;;;;;13.70;11.13;;;6.30;99.90;;;;;;5096991;28;20481;-66
2022/11/17 07:32:53;;;;;;;12.07;9.67;;;6.30;99.90;;;;;;5098203;28;20454;-66
2022/11/17 07:35:21;;;;;;;11.40;9.70;;;6.30;99.90;;;;;;5097990;28;20511;-66
2022/11/17 07:37:48;;;;;;;12.30;10.57;;;6.30;99.90;;;;;;5098520;28;20457;-65
2022/11/17 07:40:15;;;;;;;20.77;14.80;;;6.40;99.90;;;;;;5099043;28;20845;-67
2022/11/17 07:42:47;;;;;;;13.37;10.27;;;6.30;99.90;;;;;;5096341;28;20457;-65
2022/11/17 07:45:14;;;;;;;11.17;9.43;;;6.40;99.90;;;;;;5096971;28;20544;-66
2022/11/17 07:47:41;;;;;;;13.07;9.90;;;6.40;99.90;;;;;;5096126;28;20465;-66
2022/11/17 07:50:09;;;;;;;12.20;9.83;;;6.40;99.90;;;;;;5096301;28;20495;-65
2022/11/17 07:52:37;;;;;;;13.10;10.30;;;6.40;99.90;;;;;;5097540;28;20769;-68
2022/11/17 07:55:05;;;;;;;13.10;9.77;;;6.40;99.90;;;;;;5099346;28;20449;-68
2022/11/17 07:57:32;;;;;;;11.00;9.73;;;6.40;99.90;;;;;;5098698;28;20460;-69
2022/11/17 07:59:59;;;;;;;16.90;10.70;;;6.40;99.90;;;;;;5097623;28;20795;-67
2022/11/17 08:02:27;;;;;;;10.30;8.63;;;6.40;99.90;;;;;;5097432;28;20453;-68
2022/11/17 08:04:54;;;;;;;12.83;9.63;;;6.40;99.90;;;;;;5097236;28;20481;-68
2022/11/17 08:07:21;;;;;;;12.73;9.10;;;6.40;99.90;;;;;;5097169;28;20449;-68
2022/11/17 08:09:49;;;;;;;11.23;9.63;;;6.50;99.90;;;;;;5097713;28;20859;-68
2022/11/17 08:12:16;;;;;;;10.97;8.63;;;6.50;99.90;;;;;;5097609;28;20543;-68
2022/11/17 08:14:43;;;;;;;11.00;8.90;;;6.50;99.90;;;;;;5096591;28;20956;-68
2022/11/17 08:17:10;;;;;;;10.93;8.90;;;6.50;99.90;;;;;;5097835;28;20496;-68
2022/11/17 08:19:37;;;;;;;11.87;9.37;;;6.60;99.90;;;;;;5098423;28;20517;-68
2022/11/17 08:22:04;;;;;;;16.10;8.67;;;6.60;99.90;;;;;;5097324;28;20847;-68
2022/11/17 08:24:31;;;;;;;14.67;9.40;;;6.50;99.90;;;;;;5097462;28;20949;-68
2022/11/17 08:26:59;;;;;;;12.50;9.60;;;6.50;99.90;;;;;;5097119;28;20481;-67
2022/11/17 08:29:27;;;;;;;11.10;8.93;;;6.60;99.90;;;;;;5098208;28;20578;-67
2022/11/17 08:31:54;;;;;;;12.43;9.83;;;6.60;99.90;;;;;;5097237;28;20479;-68
2022/11/17 08:34:21;;;;;;;11.13;9.57;;;6.60;99.90;;;;;;5098040;28;20529;-69
2022/11/17 08:36:47;;;;;;;12.07;10.20;;;6.60;99.90;;;;;;5096622;28;20480;-68
2022/11/17 08:39:15;;;;;;;11.47;9.57;;;6.70;99.90;;;;;;5099383;28;20669;-69
2022/11/17 08:41:42;;;;;;;13.80;10.33;;;6.70;99.90;;;;;;5099162;28;20467;-68
2022/11/17 08:44:10;;;;;;;11.70;9.20;;;6.90;99.90;;;;;;5098271;28;20538;-68
2022/11/17 08:46:37;;;;;;;14.70;9.83;;;7.00;99.90;;;;;;5098960;28;20522;-67
2022/11/17 08:49:04;;;;;;;12.90;9.13;;;7.00;99.90;;;;;;5099503;28;20453;-69
2022/11/17 08:51:32;;;;;;;10.63;8.57;;;7.00;99.90;;;;;;5099104;28;20461;-69
2022/11/17 08:53:59;;;;;;;13.07;9.90;;;7.00;99.90;;;;;;5098787;28;20606;-68
2022/11/17 08:56:26;;;;;;;13.80;10.03;;;6.90;99.90;;;;;;5098746;28;20530;-68
2022/11/17 08:58:53;;;;;;;12.83;10.40;;;6.90;99.90;;;;;;5098662;28;20850;-68
2022/11/17 09:01:21;;;;;;;13.67;10.53;;;6.80;99.90;;;;;;5098321;28;20453;-68
2022/11/17 09:03:48;;;;;;;13.30;10.23;;;6.80;99.90;;;;;;5098103;28;20592;-68
2022/11/17 09:06:16;;;;;;;11.30;9.70;;;6.80;99.90;;;;;;5098585;28;20457;-68
2022/11/17 09:08:43;;;;;;;13.73;11.50;;;6.80;99.90;;;;;;5097171;28;20972;-68
2022/11/17 09:11:13;;;;;;;12.57;9.90;;;6.80;99.90;;;;;;5098597;28;20453;-68
2022/11/17 09:13:41;;;;;;;12.40;10.20;;;6.90;99.90;;;;;;5097991;28;20485;-69
2022/11/17 09:16:10;;;;;;;14.80;9.37;;;6.90;99.90;;;;;;5099724;28;20445;-67
2022/11/17 09:18:39;;;;;;;14.67;10.00;;;6.80;99.90;;;;;;5099022;28;20484;-67
2022/11/17 09:21:09;;;;;;;11.47;9.13;;;6.80;99.90;;;;;;5098381;28;20487;-68
2022/11/17 09:23:36;;;;;;;12.90;10.60;;;6.90;99.90;;;;;;5099318;28;20485;-68
2022/11/17 09:26:06;;;;;;;10.60;9.30;;;6.90;99.90;;;;;;5099514;28;20572;-68
2022/11/17 09:28:33;;;;;;;13.47;10.43;;;7.00;99.90;;;;;;5099337;28;20488;-68
2022/11/17 09:31:05;;;;;;;13.77;9.70;;;7.00;99.90;;;;;;5099791;28;20587;-68
2022/11/17 09:33:32;;;;;;;13.33;9.60;;;7.00;99.90;;;;;;5098169;28;20462;-68
2022/11/17 09:36:00;;;;;;;12.90;9.67;;;7.00;99.90;;;;;;5098430;28;20491;-68
2022/11/17 09:38:27;;;;;;;14.60;9.57;;;7.00;99.90;;;;;;5098518;28;20926;-68
2022/11/17 09:40:57;;;;;;;16.87;10.80;;;7.00;99.90;;;;;;5098167;28;20454;-68
2022/11/17 09:43:28;;;;;;;13.00;9.50;;;6.90;99.90;;;;;;5098984;28;20811;-68
2022/11/17 09:46:01;;;;;;;20.43;11.27;;;6.80;99.90;;;;;;5099329;28;20866;-69
2022/11/17 09:48:39;;;;;;;14.80;9.80;;;6.80;99.90;;;;;;5099023;28;20503;-68
2022/11/17 09:51:11;;;;;;;16.03;10.20;;;6.80;99.90;;;;;;5099848;28;20776;-67
2022/11/17 09:53:45;;;;;;;14.27;10.10;;;6.80;99.90;;;;;;5101509;28;20492;-68
2022/11/17 09:56:14;;;;;;;17.50;11.70;;;6.80;99.90;;;;;;5103693;28;20822;-69
2022/11/17 09:58:46;;;;;;;14.87;9.97;;;6.80;99.90;;;;;;5102612;28;20997;-68
2022/11/17 10:01:15;;;;;;;14.33;10.80;;;6.80;99.90;;;;;;5102007;28;20437;-67
2022/11/17 10:03:43;;;;;;;16.90;11.23;;;6.80;99.90;;;;;;5103250;28;20496;-68
2022/11/17 10:06:16;;;;;;;17.50;10.27;;;6.70;99.90;;;;;;5102972;28;20540;-68
2022/11/17 10:08:52;;;;;;;13.50;10.40;;;6.70;99.90;;;;;;5102145;28;20477;-68
2022/11/17 10:11:31;;;;;;;14.60;10.37;;;6.80;99.90;;;;;;5101866;28;20876;-69
2022/11/17 10:14:01;;;;;;;13.03;9.90;;;6.80;99.90;;;;;;5101231;28;20528;-68
2022/11/17 10:16:28;;;;;;;14.97;9.90;;;6.80;99.90;;;;;;5101018;28;20453;-68
2022/11/17 10:18:55;;;;;;;14.33;11.20;;;6.80;99.90;;;;;;5103069;28;20468;-68
2022/11/17 10:21:24;;;;;;;20.67;10.90;;;6.80;99.90;;;;;;5103791;28;20457;-69
2022/11/17 10:23:56;;;;;;;13.40;10.43;;;6.80;99.90;;;;;;5104661;28;20453;-68
2022/11/17 10:26:23;;;;;;;12.90;10.73;;;6.80;99.90;;;;;;5104263;28;21049;-68
2022/11/17 10:29:05;;;;;;;16.30;13.47;;;6.80;99.90;;;;;;5103343;28;20461;-69
2022/11/17 10:31:41;;;;;;;11.67;9.40;;;6.80;99.90;;;;;;5103327;28;20437;-69
2022/11/17 10:34:10;;;;;;;14.67;10.10;;;6.80;99.90;;;;;;5101609;28;20437;-68
2022/11/17 10:36:47;;;;;;;42.57;27.00;;;6.80;99.90;;;;;;5100701;28;20936;-69
2022/11/17 10:39:34;;;;;;;14.17;11.43;;;6.90;99.90;;;;;;5100134;28;20484;-68
2022/11/17 10:42:14;;;;;;;14.03;11.07;;;7.00;99.90;;;;;;5102783;28;20460;-67
2022/11/17 10:44:43;;;;;;;16.33;11.43;;;6.90;99.90;;;;;;5103835;28;20469;-68
2022/11/17 10:47:27;;;;;;;13.17;9.43;;;6.90;99.90;;;;;;5102023;28;20458;-68
2022/11/17 10:50:12;;;;;;;13.40;10.83;;;6.90;99.90;;;;;;5100584;28;20445;-68
2022/11/17 10:52:40;;;;;;;13.40;10.20;;;7.00;99.90;;;;;;5101258;28;20469;-68
2022/11/17 10:55:24;;;;;;;13.00;9.90;;;6.90;99.90;;;;;;5103845;28;20461;-68
2022/11/17 10:57:55;;;;;;;14.47;9.73;;;6.80;99.90;;;;;;5101306;28;20445;-68
2022/11/17 11:00:25;;;;;;;12.03;9.30;;;6.80;99.90;;;;;;5101759;28;20754;-68
2022/11/17 11:03:04;;;;;;;12.50;9.17;;;6.80;99.90;;;;;;5100562;28;20454;-69
2022/11/17 11:05:31;;;;;;;13.53;10.23;;;6.90;99.90;;;;;;5099643;28;20969;-69
2022/11/17 11:08:18;;;;;;;11.87;9.13;;;6.90;99.90;;;;;;5100167;28;20523;-68
2022/11/17 11:10:50;;;;;;;11.33;8.93;;;6.90;99.90;;;;;;5101427;28;20451;-68
2022/11/17 11:13:24;;;;;;;12.43;10.00;;;6.90;99.90;;;;;;5102469;28;20480;-68
2022/11/17 11:15:52;;;;;;;12.13;9.37;;;6.90;99.90;;;;;;5103180;28;20429;-68
2022/11/17 11:18:21;;;;;;;12.00;8.87;;;6.90;99.90;;;;;;5101022;28;20534;-68
2022/11/17 11:20:56;;;;;;;15.80;9.77;;;6.90;99.90;;;;;;5103399;28;20454;-68
2022/11/17 11:23:37;;;;;;;16.10;10.70;;;6.90;99.90;;;;;;5102222;28;20823;-68
2022/11/17 11:26:17;;;;;;;11.60;9.10;;;6.90;99.90;;;;;;5102102;28;20481;-69
2022/11/17 11:28:58;;;;;;;13.30;9.37;;;7.00;99.90;;;;;;5102869;28;20499;-68
2022/11/17 11:31:32;;;;;;;13.30;10.10;;;7.00;99.90;;;;;;5101940;28;20777;-68
2022/11/17 11:34:14;;;;;;;11.97;8.73;;;7.00;99.90;;;;;;5100658;28;20466;-68
2022/11/17 11:36:45;;;;;;;13.37;9.10;;;7.00;99.90;;;;;;5102469;28;20441;-67
2022/11/17 11:39:29;;;;;;;12.10;9.27;;;7.00;99.90;;;;;;5103181;28;20449;-68
2022/11/17 11:42:11;;;;;;;10.90;8.60;;;7.00;99.90;;;;;;5101802;28;20476;-68
2022/11/17 11:44:54;;;;;;;12.90;8.83;;;7.00;99.90;;;;;;5101653;28;20503;-68
2022/11/17 11:47:43;;;;;;;14.73;11.03;;;7.00;99.90;;;;;;5101443;28;20442;-68
2022/11/17 11:50:15;;;;;;;13.43;8.47;;;7.00;99.90;;;;;;5099088;28;20461;-67
2022/11/17 11:52:46;;;;;;;10.60;8.90;;;7.00;99.90;;;;;;5100500;28;20468;-68
2022/11/17 11:55:21;;;;;;;11.23;8.70;;;7.00;99.90;;;;;;5101241;28;20438;-68
2022/11/17 11:57:52;;;;;;;11.50;8.83;;;7.00;99.90;;;;;;5101508;28;20448;-68
2022/11/17 12:00:19;;;;;;;15.30;9.30;;;7.00;99.90;;;;;;5101639;28;20514;-68
2022/11/17 12:02:53;;;;;;;13.87;8.60;;;7.00;99.90;;;;;;5099695;28;20496;-67
2022/11/17 12:05:26;;;;;;;12.07;9.67;;;7.00;99.90;;;;;;5096988;28;20465;-64
2022/11/17 12:08:01;;;;;;;15.00;10.07;;;6.90;99.90;;;;;;5096534;28;20469;-67
2022/11/17 12:10:35;;;;;;;10.30;7.80;;;7.00;99.90;;;;;;5096310;28;20516;-68
2022/11/17 12:13:04;;;;;;;12.13;8.90;;;7.00;99.90;;;;;;5096225;28;20494;-67
2022/11/17 12:15:33;;;;;;;10.97;8.23;;;7.00;99.90;;;;;;5095855;28;20808;-67
2022/11/17 12:18:03;;;;;;;11.20;8.50;;;7.00;99.90;;;;;;5096235;28;20496;-67
2022/11/17 12:20:54;;;;;;;12.13;9.40;;;7.00;99.90;;;;;;5096009;28;20445;-66
2022/11/17 12:23:38;;;;;;;11.93;8.63;;;7.10;99.90;;;;;;5096247;28;20452;-66
2022/11/17 12:26:07;;;;;;;11.80;8.80;;;7.10;99.90;;;;;;5095551;28;20602;-66
2022/11/17 12:28:35;;;;;;;13.47;10.17;;;7.10;99.90;;;;;;5096331;28;20457;-66
2022/11/17 12:31:04;;;;;;;10.67;9.00;;;7.10;99.90;;;;;;5097510;28;20457;-67
2022/11/17 12:34:09;;;;;;;11.17;8.23;;;7.10;99.90;;;;;;5097125;28;20453;-67
2022/11/17 12:36:37;;;;;;;12.07;9.30;;;7.10;99.90;;;;;;5097228;28;20524;-67
2022/11/17 12:39:06;;;;;;;12.67;8.70;;;7.10;99.90;;;;;;5097231;28;20454;-67
2022/11/17 12:42:06;;;;;;;9.27;8.23;;;7.10;99.90;;;;;;5096693;28;20490;-68
2022/11/17 12:44:57;;;;;;;15.10;9.47;;;7.00;99.90;;;;;;5096875;28;20492;-67
2022/11/17 12:47:26;;;;;;;11.30;8.83;;;7.00;99.90;;;;;;5097514;28;20434;-66
2022/11/17 12:50:20;;;;;;;10.13;8.77;;;7.10;99.90;;;;;;5099040;28;20464;-66
2022/11/17 12:52:58;;;;;;;11.40;8.97;;;7.00;99.90;;;;;;5091250;28;20526;-67
2022/11/17 12:55:40;;;;;;;13.83;9.50;;;7.10;99.90;;;;;;5097430;28;20469;-66
2022/11/17 12:58:18;;;;;;;11.93;9.00;;;7.10;99.90;;;;;;5097962;28;20442;-67
2022/11/17 13:00:55;;;;;;;10.73;9.27;;;7.10;99.90;;;;;;5095382;28;20494;-67
2022/11/17 13:03:29;;;;;;;10.30;8.97;;;7.10;99.90;;;;;;5095748;28;20457;-65
2022/11/17 13:06:07;;;;;;;19.50;9.20;;;7.10;99.90;;;;;;5094958;28;20465;-67
2022/11/17 13:08:34;;;;;;;10.30;8.60;;;7.00;99.90;;;;;;5094858;28;20473;-67
2022/11/17 13:11:10;;;;;;;13.60;9.93;;;7.00;99.90;;;;;;5095297;28;20894;-67
2022/11/17 13:13:40;;;;;;;13.97;9.93;;;6.90;99.90;;;;;;5095047;28;20484;-67
2022/11/17 13:16:17;;;;;;;11.70;9.50;;;6.90;99.90;;;;;;5094999;28;20463;-67
2022/11/17 13:18:45;;;;;;;12.80;9.77;;;6.90;99.90;;;;;;5095084;28;20451;-68
2022/11/17 13:21:27;;;;;;;10.70;9.00;;;6.90;99.90;;;;;;5095346;28;20551;-67
2022/11/17 13:23:54;;;;;;;9.33;8.33;;;7.00;99.90;;;;;;5095744;28;20535;-67
2022/11/17 13:26:25;;;;;;;14.03;9.63;;;7.00;99.90;;;;;;5094732;28;20863;-66
2022/11/17 13:29:05;;;;;;;15.20;9.70;;;7.00;99.90;;;;;;5099696;28;20886;-67